Time;durP1;ratioP1;P1;durP2;ratioP2;P2;SDS_P1;SDS_P2;PMS_P1;PMS_P2;Temp;Humidity;BMP_temperature;BMP_pressure;BME280_temperature;BME280_humidity;BME280_pressure;Samples;Min_cycle;Max_cycle;Signal;HPM_P1;HPM_P2
2022/04/03 00:01:33;;;;;;;21.83;7.47;;;;;;;;;;5032690;28;20038;-61
2022/04/03 00:03:59;;;;;;;17.90;7.03;;;;;;;;;;5032865;28;20030;-65
2022/04/03 00:06:25;;;;;;;17.63;7.32;;;;;;;;;;5032611;28;20029;-60
2022/04/03 00:08:50;;;;;;;15.20;7.75;;;;;;;;;;5026595;28;20471;-59
2022/04/03 00:11:16;;;;;;;18.63;7.65;;;;;;;;;;5021592;28;20029;-61
2022/04/03 00:13:42;;;;;;;21.15;7.15;;;;;;;;;;5023471;28;20018;-64
2022/04/03 00:16:07;;;;;;;14.65;5.38;;;;;;;;;;5021785;28;20038;-59
2022/04/03 00:18:33;;;;;;;8.38;3.95;;;;;;;;;;5023532;28;20049;-60
2022/04/03 00:21:00;;;;;;;12.38;4.55;;;;;;;;;;5025740;28;20032;-63
2022/04/03 00:23:26;;;;;;;12.80;5.95;;;;;;;;;;5021624;28;20172;-60
2022/04/03 00:25:52;;;;;;;11.85;5.55;;;;;;;;;;5032149;28;20017;-59
2022/04/03 00:28:18;;;;;;;10.88;6.03;;;;;;;;;;5031657;28;20025;-62
2022/04/03 00:30:44;;;;;;;14.60;5.68;;;;;;;;;;5029097;28;20091;-60
2022/04/03 00:33:11;;;;;;;14.80;5.18;;;;;;;;;;5035484;28;20029;-60
2022/04/03 00:35:37;;;;;;;10.88;5.13;;;;;;;;;;5034254;28;20021;-60
2022/04/03 00:38:03;;;;;;;12.93;5.45;;;;;;;;;;5034282;28;20023;-60
2022/04/03 00:40:29;;;;;;;14.93;5.70;;;;;;;;;;5033956;28;20038;-60
2022/04/03 00:42:54;;;;;;;13.43;5.80;;;;;;;;;;5036447;28;20119;-60
2022/04/03 00:45:20;;;;;;;13.68;5.35;;;;;;;;;;5034264;28;20091;-63
2022/04/03 00:47:48;;;;;;;12.23;5.85;;;;;;;;;;5033440;28;20033;-62
2022/04/03 00:50:15;;;;;;;10.27;4.78;;;;;;;;;;5031144;28;20025;-64
2022/04/03 00:52:41;;;;;;;15.45;5.32;;;;;;;;;;5034990;28;20026;-59
2022/04/03 00:55:07;;;;;;;10.75;4.20;;;;;;;;;;5034060;28;20554;-59
2022/04/03 00:57:34;;;;;;;9.07;4.07;;;;;;;;;;5033609;28;20506;-65
2022/04/03 00:59:59;;;;;;;8.93;3.95;;;;;;;;;;5033547;28;20017;-61
2022/04/03 01:02:26;;;;;;;10.70;4.20;;;;;;;;;;5031678;28;20033;-59
2022/04/03 01:04:51;;;;;;;5.93;3.50;;;;;;;;;;5033900;28;20025;-59
2022/04/03 01:07:17;;;;;;;6.45;3.03;;;;;;;;;;5032154;28;20339;-60
2022/04/03 01:09:44;;;;;;;5.40;2.90;;;;;;;;;;5029589;28;20044;-61
2022/04/03 01:12:10;;;;;;;7.57;3.00;;;;;;;;;;5030531;28;20112;-60
2022/04/03 01:14:38;;;;;;;5.43;2.78;;;;;;;;;;5030724;28;20160;-61
2022/04/03 01:17:05;;;;;;;7.03;2.63;;;;;;;;;;5030566;28;20025;-61
2022/04/03 01:19:31;;;;;;;4.53;2.70;;;;;;;;;;5030275;28;20121;-63
2022/04/03 01:21:57;;;;;;;5.93;2.20;;;;;;;;;;5033431;28;20446;-60
2022/04/03 01:24:24;;;;;;;6.72;2.97;;;;;;;;;;5031672;28;20084;-60
2022/04/03 01:26:50;;;;;;;7.05;2.40;;;;;;;;;;5030597;28;20413;-61
2022/04/03 01:29:16;;;;;;;4.40;2.50;;;;;;;;;;5030686;28;20500;-61
2022/04/03 01:31:42;;;;;;;6.15;2.50;;;;;;;;;;5031829;28;20033;-62
2022/04/03 01:34:08;;;;;;;9.88;2.80;;;;;;;;;;5035348;28;20105;-59
2022/04/03 01:36:34;;;;;;;4.55;2.10;;;;;;;;;;5031610;28;20041;-61
2022/04/03 01:38:59;;;;;;;7.65;2.40;;;;;;;;;;5033154;28;20036;-59
2022/04/03 01:41:25;;;;;;;3.72;2.05;;;;;;;;;;5033843;28;20037;-59
2022/04/03 01:43:51;;;;;;;3.67;2.20;;;;;;;;;;5032656;28;20121;-60
2022/04/03 01:46:17;;;;;;;3.78;2.10;;;;;;;;;;5036604;28;20036;-59
2022/04/03 01:48:44;;;;;;;4.25;2.33;;;;;;;;;;5033869;28;20033;-63
2022/04/03 01:51:09;;;;;;;4.85;2.53;;;;;;;;;;5034438;28;20033;-65
2022/04/03 01:53:35;;;;;;;9.52;3.00;;;;;;;;;;5035357;28;20029;-60
2022/04/03 01:56:04;;;;;;;4.85;2.30;;;;;;;;;;5033933;28;20021;-60
2022/04/03 01:58:30;;;;;;;6.82;2.60;;;;;;;;;;5024496;28;20040;-61
2022/04/03 02:00:56;;;;;;;5.60;2.33;;;;;;;;;;5033359;28;20083;-60
2022/04/03 02:03:22;;;;;;;3.50;2.03;;;;;;;;;;5024266;28;20022;-60
2022/04/03 02:05:48;;;;;;;5.68;2.38;;;;;;;;;;5024357;28;20080;-60
2022/04/03 02:08:15;;;;;;;5.95;2.17;;;;;;;;;;5022597;28;20029;-60
2022/04/03 02:10:41;;;;;;;4.57;2.20;;;;;;;;;;5024317;28;20017;-61
2022/04/03 02:13:06;;;;;;;6.80;2.20;;;;;;;;;;5024119;28;20041;-59
2022/04/03 02:15:32;;;;;;;5.90;2.67;;;;;;;;;;5033330;28;20025;-59
2022/04/03 02:17:57;;;;;;;5.60;2.20;;;;;;;;;;5033541;28;20014;-60
2022/04/03 02:20:23;;;;;;;4.07;2.55;;;;;;;;;;5032918;28;20662;-61
2022/04/03 02:22:48;;;;;;;14.13;2.38;;;;;;;;;;5033404;28;20116;-60
2022/04/03 02:25:14;;;;;;;3.95;2.17;;;;;;;;;;5022755;28;20391;-62
2022/04/03 02:27:41;;;;;;;3.42;2.33;;;;;;;;;;5033259;28;20097;-60
2022/04/03 02:30:09;;;;;;;4.50;2.38;;;;;;;;;;5031837;28;20388;-61
2022/04/03 02:32:38;;;;;;;6.82;2.63;;;;;;;;;;5033161;28;20029;-59
2022/04/03 02:35:06;;;;;;;4.90;2.40;;;;;;;;;;5033417;28;20095;-59
2022/04/03 02:37:33;;;;;;;5.80;2.33;;;;;;;;;;5033086;28;20552;-59
2022/04/03 02:39:59;;;;;;;4.15;2.78;;;;;;;;;;5033181;28;20021;-61
2022/04/03 02:42:24;;;;;;;5.97;3.50;;;;;;;;;;5033118;28;20464;-59
2022/04/03 02:44:51;;;;;;;5.25;2.92;;;;;;;;;;5032747;28;20029;-59
2022/04/03 02:47:17;;;;;;;5.95;2.35;;;;;;;;;;5032917;28;20092;-59
2022/04/03 02:49:43;;;;;;;6.93;3.00;;;;;;;;;;5022877;28;20101;-60
2022/04/03 02:52:08;;;;;;;4.82;2.20;;;;;;;;;;5023681;28;20137;-59
2022/04/03 02:54:36;;;;;;;6.07;2.22;;;;;;;;;;5032908;28;20048;-60
2022/04/03 02:57:02;;;;;;;5.45;2.33;;;;;;;;;;5033302;28;20022;-61
2022/04/03 02:59:27;;;;;;;5.13;2.30;;;;;;;;;;5033472;28;20056;-59
2022/04/03 03:01:53;;;;;;;5.15;2.80;;;;;;;;;;5033547;28;20073;-60
2022/04/03 03:04:18;;;;;;;4.57;2.28;;;;;;;;;;5033606;28;20022;-60
2022/04/03 03:06:44;;;;;;;7.85;2.90;;;;;;;;;;5033599;28;20026;-59
2022/04/03 03:09:09;;;;;;;6.40;3.22;;;;;;;;;;5033432;28;20530;-62
2022/04/03 03:11:35;;;;;;;4.63;2.60;;;;;;;;;;5033257;28;20132;-58
2022/04/03 03:14:00;;;;;;;4.78;2.38;;;;;;;;;;5033321;28;20026;-59
2022/04/03 03:16:26;;;;;;;5.55;3.13;;;;;;;;;;5033268;28;20040;-59
2022/04/03 03:18:51;;;;;;;5.50;2.78;;;;;;;;;;5033020;28;20216;-58
2022/04/03 03:21:16;;;;;;;5.70;3.10;;;;;;;;;;5032767;28;20029;-58
2022/04/03 03:23:42;;;;;;;5.25;2.70;;;;;;;;;;5033248;28;20022;-59
2022/04/03 03:26:08;;;;;;;6.90;2.85;;;;;;;;;;5033329;28;20112;-58
2022/04/03 03:28:34;;;;;;;3.42;2.30;;;;;;;;;;5033131;28;20474;-60
2022/04/03 03:31:00;;;;;;;7.07;2.70;;;;;;;;;;5032935;28;20041;-60
2022/04/03 03:33:25;;;;;;;3.58;2.38;;;;;;;;;;5032631;28;20026;-59
2022/04/03 03:35:51;;;;;;;4.85;2.45;;;;;;;;;;5032484;28;20514;-59
2022/04/03 03:38:16;;;;;;;3.83;2.15;;;;;;;;;;5032347;28;20112;-61
2022/04/03 03:40:42;;;;;;;4.45;2.20;;;;;;;;;;5032354;28;20521;-60
2022/04/03 03:43:09;;;;;;;4.65;2.03;;;;;;;;;;5032213;28;20390;-60
2022/04/03 03:45:35;;;;;;;4.63;2.38;;;;;;;;;;5032149;28;20025;-61
2022/04/03 03:48:01;;;;;;;4.72;2.35;;;;;;;;;;5032317;28;20030;-60
2022/04/03 03:50:26;;;;;;;3.30;2.00;;;;;;;;;;5032087;28;20025;-63
2022/04/03 03:52:52;;;;;;;5.70;1.95;;;;;;;;;;5032395;28;20036;-60
2022/04/03 03:55:18;;;;;;;4.20;2.35;;;;;;;;;;5032451;28;20509;-60
2022/04/03 03:57:45;;;;;;;6.47;2.38;;;;;;;;;;5032460;28;20017;-61
2022/04/03 04:00:11;;;;;;;5.93;2.13;;;;;;;;;;5032538;28;20030;-60
2022/04/03 04:02:37;;;;;;;3.58;2.20;;;;;;;;;;5031861;28;20087;-62
2022/04/03 04:05:04;;;;;;;4.47;2.25;;;;;;;;;;5032547;28;20033;-59
2022/04/03 04:07:44;;;;;;;5.95;2.92;;;;;;;;;;5032530;28;20029;-61
2022/04/03 04:10:12;;;;;;;3.33;2.42;;;;;;;;;;5031919;28;20025;-60
2022/04/03 04:12:39;;;;;;;3.72;2.20;;;;;;;;;;5031729;28;20151;-60
2022/04/03 04:15:05;;;;;;;5.45;2.20;;;;;;;;;;5031608;28;20096;-59
2022/04/03 04:17:42;;;;;;;5.13;2.22;;;;;;;;;;5031671;28;20021;-60
2022/04/03 04:20:11;;;;;;;5.30;2.17;;;;;;;;;;5031796;28;20135;-60
2022/04/03 04:22:38;;;;;;;4.30;2.28;;;;;;;;;;5032313;28;20050;-60
2022/04/03 04:25:05;;;;;;;4.70;2.22;;;;;;;;;;5032220;28;20087;-60
2022/04/03 04:27:31;;;;;;;4.18;2.33;;;;;;;;;;5032320;28;20490;-59
2022/04/03 04:29:56;;;;;;;3.55;2.15;;;;;;;;;;5032135;28;20026;-59
2022/04/03 04:32:22;;;;;;;3.92;2.15;;;;;;;;;;5032130;28;20597;-60
2022/04/03 04:34:49;;;;;;;4.15;2.10;;;;;;;;;;5032208;28;20030;-60
2022/04/03 04:37:15;;;;;;;3.40;2.10;;;;;;;;;;5031958;28;20032;-60
2022/04/03 04:39:40;;;;;;;4.78;2.60;;;;;;;;;;5031972;28;20029;-59
2022/04/03 04:42:06;;;;;;;4.60;2.67;;;;;;;;;;5031486;28;20029;-59
2022/04/03 04:44:31;;;;;;;3.63;2.17;;;;;;;;;;5031519;28;20025;-59
2022/04/03 04:46:57;;;;;;;4.45;2.38;;;;;;;;;;5031431;28;20120;-59
2022/04/03 04:49:22;;;;;;;7.03;2.90;;;;;;;;;;5031442;28;20470;-60
2022/04/03 04:51:48;;;;;;;4.82;3.00;;;;;;;;;;5031883;28;20053;-59
2022/04/03 04:54:14;;;;;;;7.25;3.50;;;;;;;;;;5031726;28;20022;-59
2022/04/03 04:56:40;;;;;;;6.72;3.85;;;;;;;;;;5031946;28;20032;-60
2022/04/03 04:59:05;;;;;;;7.30;3.80;;;;;;;;;;5031976;28;20021;-60
2022/04/03 05:01:31;;;;;;;7.68;4.13;;;;;;;;;;5031642;28;20120;-60
2022/04/03 05:03:56;;;;;;;11.10;4.88;;;;;;;;;;5031954;28;20084;-60
2022/04/03 05:06:26;;;;;;;11.32;5.20;;;;;;;;;;5031988;28;20022;-60
2022/04/03 05:08:55;;;;;;;12.82;6.25;;;;;;;;;;5031583;28;20025;-59
2022/04/03 05:11:21;;;;;;;10.30;5.13;;;;;;;;;;5031759;28;20025;-63
2022/04/03 05:13:47;;;;;;;12.98;5.68;;;;;;;;;;5032962;28;20087;-61
2022/04/03 05:16:12;;;;;;;9.85;5.40;;;;;;;;;;5034976;28;20038;-60
2022/04/03 05:18:39;;;;;;;8.43;4.70;;;;;;;;;;5034853;28;20100;-59
2022/04/03 05:21:07;;;;;;;10.57;4.57;;;;;;;;;;5034916;28;20033;-60
2022/04/03 05:23:32;;;;;;;8.70;5.00;;;;;;;;;;5035428;28;20459;-60
2022/04/03 05:25:59;;;;;;;8.38;4.53;;;;;;;;;;5035592;28;20029;-60
2022/04/03 05:28:24;;;;;;;11.95;4.80;;;;;;;;;;5035445;28;20025;-62
2022/04/03 05:30:50;;;;;;;10.30;4.78;;;;;;;;;;5035601;28;20463;-60
2022/04/03 05:33:15;;;;;;;10.50;4.65;;;;;;;;;;5035384;28;20030;-62
2022/04/03 05:35:42;;;;;;;8.70;4.53;;;;;;;;;;5035411;28;20021;-59
2022/04/03 05:38:08;;;;;;;9.00;4.47;;;;;;;;;;5035170;28;20112;-60
2022/04/03 05:40:33;;;;;;;10.45;5.18;;;;;;;;;;5034398;28;20029;-61
2022/04/03 05:43:00;;;;;;;9.63;4.88;;;;;;;;;;5034509;28;20025;-61
2022/04/03 05:45:26;;;;;;;16.83;5.75;;;;;;;;;;5034553;28;20029;-60
2022/04/03 05:47:52;;;;;;;9.00;4.18;;;;;;;;;;5034580;28;20030;-59
2022/04/03 05:50:17;;;;;;;7.80;3.67;;;;;;;;;;5034942;28;20033;-60
2022/04/03 05:52:52;;;;;;;9.18;4.05;;;;;;;;;;5034854;28;20470;-62
2022/04/03 05:55:20;;;;;;;8.95;4.60;;;;;;;;;;5034428;28;20026;-60
2022/04/03 05:57:48;;;;;;;9.82;4.28;;;;;;;;;;5034351;28;20021;-60
2022/04/03 06:00:15;;;;;;;6.65;3.53;;;;;;;;;;5034083;28;20065;-64
2022/04/03 06:02:53;;;;;;;6.55;3.70;;;;;;;;;;5034240;28;20470;-60
2022/04/03 06:05:25;;;;;;;5.18;3.22;;;;;;;;;;5034708;28;20475;-60
2022/04/03 06:07:51;;;;;;;4.82;2.75;;;;;;;;;;5034678;28;20029;-60
2022/04/03 06:10:19;;;;;;;8.23;3.50;;;;;;;;;;5034617;28;20103;-60
2022/04/03 06:13:04;;;;;;;12.18;4.95;;;;;;;;;;5034819;28;20034;-62
2022/04/03 06:15:38;;;;;;;13.18;5.25;;;;;;;;;;5034620;28;20030;-60
2022/04/03 06:18:06;;;;;;;8.85;4.93;;;;;;;;;;5034692;28;20029;-62
2022/04/03 06:20:33;;;;;;;5.15;3.45;;;;;;;;;;5033820;28;20079;-60
2022/04/03 06:22:59;;;;;;;5.90;2.95;;;;;;;;;;5034158;28;20029;-62
2022/04/03 06:25:24;;;;;;;4.35;2.60;;;;;;;;;;5033528;28;20105;-61
2022/04/03 06:27:54;;;;;;;3.35;2.13;;;;;;;;;;5033758;28;20116;-66
2022/04/03 06:30:20;;;;;;;5.53;2.65;;;;;;;;;;5033687;28;20030;-60
2022/04/03 06:32:45;;;;;;;3.58;2.22;;;;;;;;;;5033652;28;20029;-64
2022/04/03 06:35:11;;;;;;;5.53;2.60;;;;;;;;;;5033883;28;20541;-59
2022/04/03 06:37:37;;;;;;;5.25;2.72;;;;;;;;;;5033969;28;20025;-62
2022/04/03 06:40:04;;;;;;;4.03;2.28;;;;;;;;;;5034338;28;20489;-60
2022/04/03 06:42:31;;;;;;;3.47;2.05;;;;;;;;;;5034134;28;20029;-62
2022/04/03 06:44:57;;;;;;;3.20;2.00;;;;;;;;;;5034103;28;20336;-60
2022/04/03 06:47:23;;;;;;;5.05;2.15;;;;;;;;;;5033944;28;20367;-61
2022/04/03 06:49:49;;;;;;;4.95;2.15;;;;;;;;;;5033986;28;20104;-61
2022/04/03 06:52:14;;;;;;;3.50;1.90;;;;;;;;;;5033659;28;20371;-62
2022/04/03 06:54:40;;;;;;;4.03;2.65;;;;;;;;;;5033774;28;20026;-61
2022/04/03 06:57:06;;;;;;;6.40;4.95;;;;;;;;;;5033155;28;20043;-63
2022/04/03 06:59:32;;;;;;;4.93;1.90;;;;;;;;;;5033127;28;20534;-61
2022/04/03 07:01:57;;;;;;;3.95;2.20;;;;;;;;;;5033156;28;20121;-63
2022/04/03 07:04:23;;;;;;;6.78;2.67;;;;;;;;;;5032248;28;20022;-60
2022/04/03 07:06:48;;;;;;;2.97;1.70;;;;;;;;;;5033540;28;20025;-61
2022/04/03 07:09:14;;;;;;;2.70;1.70;;;;;;;;;;5033784;28;20029;-60
2022/04/03 07:11:40;;;;;;;3.63;2.40;;;;;;;;;;5033518;28;20033;-61
2022/04/03 07:14:05;;;;;;;4.32;2.20;;;;;;;;;;5033504;28;20063;-60
2022/04/03 07:16:31;;;;;;;4.53;2.13;;;;;;;;;;5033402;28;20024;-62
2022/04/03 07:18:56;;;;;;;3.40;2.40;;;;;;;;;;5033133;28;20102;-61
2022/04/03 07:21:22;;;;;;;3.90;2.40;;;;;;;;;;5033034;28;20030;-60
2022/04/03 07:23:48;;;;;;;3.30;2.30;;;;;;;;;;5032983;28;20033;-60
2022/04/03 07:26:14;;;;;;;3.60;2.25;;;;;;;;;;5032569;28;20048;-61
2022/04/03 07:28:40;;;;;;;4.80;2.47;;;;;;;;;;5032662;28;20104;-60
2022/04/03 07:31:06;;;;;;;5.25;2.17;;;;;;;;;;5032381;28;20025;-60
2022/04/03 07:33:31;;;;;;;2.70;2.05;;;;;;;;;;5032965;28;20025;-60
2022/04/03 07:35:57;;;;;;;4.97;2.25;;;;;;;;;;5032852;28;20593;-60
2022/04/03 07:38:22;;;;;;;5.00;2.00;;;;;;;;;;5032119;28;20049;-60
2022/04/03 07:40:48;;;;;;;2.95;2.15;;;;;;;;;;5032074;28;20112;-62
2022/04/03 07:43:16;;;;;;;5.00;2.17;;;;;;;;;;5032280;28;20383;-60
2022/04/03 07:45:45;;;;;;;3.90;1.90;;;;;;;;;;5032354;28;20064;-60
2022/04/03 07:48:11;;;;;;;2.85;1.73;;;;;;;;;;5032112;28;20486;-60
2022/04/03 07:50:37;;;;;;;7.25;1.92;;;;;;;;;;5032742;28;20185;-61
2022/04/03 07:53:04;;;;;;;3.28;1.92;;;;;;;;;;5032767;28;20542;-60
2022/04/03 07:55:29;;;;;;;2.90;1.90;;;;;;;;;;5032759;28;20117;-60
2022/04/03 07:57:55;;;;;;;3.15;2.10;;;;;;;;;;5032657;28;20108;-61
2022/04/03 08:00:20;;;;;;;2.40;1.77;;;;;;;;;;5032617;28;20029;-58
2022/04/03 08:02:46;;;;;;;4.15;2.22;;;;;;;;;;5032313;28;20017;-60
2022/04/03 08:05:12;;;;;;;3.03;1.77;;;;;;;;;;5032408;28;20060;-60
2022/04/03 08:07:41;;;;;;;3.47;1.70;;;;;;;;;;5032102;28;20025;-60
2022/04/03 08:10:08;;;;;;;2.78;1.50;;;;;;;;;;5032244;28;20383;-60
2022/04/03 08:12:39;;;;;;;3.25;1.60;;;;;;;;;;5032440;28;20057;-60
2022/04/03 08:15:05;;;;;;;4.45;1.65;;;;;;;;;;5032476;28;20096;-60
2022/04/03 08:17:32;;;;;;;2.40;1.52;;;;;;;;;;5032135;28;20112;-60
2022/04/03 08:19:58;;;;;;;3.30;1.85;;;;;;;;;;5032075;28;20049;-59
2022/04/03 08:22:24;;;;;;;2.60;1.80;;;;;;;;;;5032184;28;20025;-60
2022/04/03 08:24:50;;;;;;;3.65;2.03;;;;;;;;;;5031999;28;20025;-61
2022/04/03 08:27:18;;;;;;;3.05;1.52;;;;;;;;;;5031605;28;20040;-60
2022/04/03 08:29:44;;;;;;;3.65;1.77;;;;;;;;;;5031592;28;20112;-60
2022/04/03 08:32:10;;;;;;;3.53;1.55;;;;;;;;;;5031614;28;20108;-61
2022/04/03 08:34:36;;;;;;;3.05;1.48;;;;;;;;;;5032027;28;20029;-64
2022/04/03 08:37:01;;;;;;;3.75;1.50;;;;;;;;;;5032289;28;20100;-59
2022/04/03 08:39:27;;;;;;;2.20;1.48;;;;;;;;;;5032167;28;20096;-60
2022/04/03 08:41:54;;;;;;;13.77;4.68;;;;;;;;;;5032130;28;20087;-60
2022/04/03 08:44:19;;;;;;;2.30;1.60;;;;;;;;;;5032065;28;20028;-60
2022/04/03 08:46:48;;;;;;;2.70;1.70;;;;;;;;;;5031892;28;20041;-60
2022/04/03 08:49:15;;;;;;;2.95;1.75;;;;;;;;;;5034385;28;20036;-60
2022/04/03 08:51:41;;;;;;;3.35;1.80;;;;;;;;;;5034800;28;20025;-61
2022/04/03 08:54:08;;;;;;;2.15;1.40;;;;;;;;;;5036122;28;20031;-59
2022/04/03 08:56:33;;;;;;;2.85;1.70;;;;;;;;;;5035573;28;20032;-59
2022/04/03 08:58:59;;;;;;;3.25;1.58;;;;;;;;;;5032382;28;20033;-60
2022/04/03 09:01:25;;;;;;;3.65;1.70;;;;;;;;;;5033899;28;20502;-60
2022/04/03 09:03:50;;;;;;;10.32;5.13;;;;;;;;;;5035408;28;20048;-61
2022/04/03 09:06:18;;;;;;;5.65;2.90;;;;;;;;;;5035330;28;20487;-59
2022/04/03 09:08:44;;;;;;;6.72;4.15;;;;;;;;;;5015489;28;20029;-62
2022/04/03 09:11:10;;;;;;;2.42;1.67;;;;;;;;;;5015619;28;20187;-60
2022/04/03 09:13:37;;;;;;;4.03;1.90;;;;;;;;;;5035170;28;20115;-60
2022/04/03 09:16:04;;;;;;;3.03;1.73;;;;;;;;;;5034916;28;20025;-60
2022/04/03 09:18:51;;;;;;;2.58;1.55;;;;;;;;;;5035355;28;20044;-60
2022/04/03 09:21:21;;;;;;;3.60;1.60;;;;;;;;;;5035615;28;20037;-59
2022/04/03 09:24:00;;;;;;;6.53;2.00;;;;;;;;;;5035866;28;20021;-61
2022/04/03 09:26:27;;;;;;;3.22;1.80;;;;;;;;;;5035661;28;20033;-61
2022/04/03 09:29:15;;;;;;;6.35;3.42;;;;;;;;;;5035665;28;20053;-59
2022/04/03 09:31:42;;;;;;;3.15;1.80;;;;;;;;;;5035487;28;20022;-60
2022/04/03 09:34:15;;;;;;;2.40;1.70;;;;;;;;;;5035685;28;20474;-59
2022/04/03 09:36:40;;;;;;;5.32;1.77;;;;;;;;;;5035706;28;20164;-61
2022/04/03 09:39:12;;;;;;;2.20;1.55;;;;;;;;;;5035312;28;20037;-59
2022/04/03 09:41:57;;;;;;;2.67;1.52;;;;;;;;;;5035478;28;20040;-59
2022/04/03 09:44:31;;;;;;;2.13;1.50;;;;;;;;;;5035206;28;20029;-60
2022/04/03 09:47:33;;;;;;;2.97;1.70;;;;;;;;;;5035326;28;20032;-59
2022/04/03 09:50:05;;;;;;;1.63;1.25;;;;;;;;;;5035356;28;20032;-60
2022/04/03 09:52:43;;;;;;;2.58;1.40;;;;;;;;;;5035382;28;20021;-60
2022/04/03 09:55:16;;;;;;;2.25;1.50;;;;;;;;;;5034712;28;20029;-60
2022/04/03 09:57:50;;;;;;;2.88;1.60;;;;;;;;;;5035126;28;20017;-60
2022/04/03 10:00:33;;;;;;;2.35;1.50;;;;;;;;;;5033585;28;20033;-62
2022/04/03 10:03:00;;;;;;;2.35;1.30;;;;;;;;;;5034471;28;20021;-61
2022/04/03 10:05:30;;;;;;;3.28;1.63;;;;;;;;;;5035105;28;20040;-61
2022/04/03 10:07:59;;;;;;;4.80;1.40;;;;;;;;;;5034632;28;20029;-60
2022/04/03 10:10:25;;;;;;;5.40;1.30;;;;;;;;;;5034994;28;20124;-61
2022/04/03 10:12:51;;;;;;;3.25;1.50;;;;;;;;;;5034876;28;20431;-61
2022/04/03 10:15:16;;;;;;;2.65;1.58;;;;;;;;;;5034593;28;20056;-60
2022/04/03 10:17:42;;;;;;;2.70;2.00;;;;;;;;;;5034934;28;20117;-60
2022/04/03 10:20:09;;;;;;;5.43;1.90;;;;;;;;;;5034299;28;20046;-60
2022/04/03 10:22:39;;;;;;;4.47;1.50;;;;;;;;;;5034864;28;20030;-59
2022/04/03 10:25:11;;;;;;;4.65;1.40;;;;;;;;;;5034388;28;20102;-60
2022/04/03 10:27:39;;;;;;;2.17;1.50;;;;;;;;;;5034542;28;20025;-59
2022/04/03 10:30:06;;;;;;;2.63;1.77;;;;;;;;;;5034651;28;20072;-63
2022/04/03 10:32:36;;;;;;;2.78;2.00;;;;;;;;;;5034448;28;20033;-60
2022/04/03 10:35:10;;;;;;;3.17;1.98;;;;;;;;;;5033881;28;20127;-62
2022/04/03 10:37:40;;;;;;;3.17;1.50;;;;;;;;;;5034545;28;20026;-60
2022/04/03 10:40:18;;;;;;;7.38;4.93;;;;;;;;;;5034347;28;20171;-60
2022/04/03 10:43:02;;;;;;;2.63;1.50;;;;;;;;;;5034279;28;20097;-60
2022/04/03 10:45:43;;;;;;;2.85;1.98;;;;;;;;;;5034440;28;20029;-61
2022/04/03 10:48:21;;;;;;;2.67;1.90;;;;;;;;;;5034272;28;20414;-60
2022/04/03 10:51:00;;;;;;;5.15;2.28;;;;;;;;;;5034179;28;20037;-60
2022/04/03 10:53:28;;;;;;;4.65;2.00;;;;;;;;;;5034238;28;20075;-60
2022/04/03 10:55:57;;;;;;;5.20;3.80;;;;;;;;;;5034056;28;21158;-60
2022/04/03 10:58:23;;;;;;;3.20;1.90;;;;;;;;;;5033655;28;20041;-60
2022/04/03 11:00:49;;;;;;;4.00;1.88;;;;;;;;;;5033058;28;20021;-59
2022/04/03 11:03:15;;;;;;;3.97;1.67;;;;;;;;;;5033322;28;20034;-63
2022/04/03 11:05:43;;;;;;;5.25;1.77;;;;;;;;;;5033972;28;20438;-60
2022/04/03 11:08:08;;;;;;;4.47;2.25;;;;;;;;;;5033878;28;20083;-59
2022/04/03 11:10:55;;;;;;;11.60;3.53;;;;;;;;;;5033846;28;20108;-60
2022/04/03 11:13:38;;;;;;;6.50;2.28;;;;;;;;;;5033733;28;20030;-59
2022/04/03 11:16:09;;;;;;;3.92;2.10;;;;;;;;;;5033776;28;20025;-64
2022/04/03 11:18:35;;;;;;;6.68;2.50;;;;;;;;;;5033196;28;20544;-60
2022/04/03 11:21:07;;;;;;;5.35;2.30;;;;;;;;;;5033025;28;20116;-60
2022/04/03 11:23:39;;;;;;;13.52;2.53;;;;;;;;;;5033655;28;20025;-60
2022/04/03 11:26:06;;;;;;;4.47;2.30;;;;;;;;;;5033406;28;20033;-61
2022/04/03 11:28:34;;;;;;;9.95;3.42;;;;;;;;;;5033283;28;20033;-60
2022/04/03 11:31:00;;;;;;;3.28;2.40;;;;;;;;;;5033050;28;20032;-61
2022/04/03 11:33:27;;;;;;;4.68;2.35;;;;;;;;;;5033405;28;20036;-61
2022/04/03 11:35:53;;;;;;;3.55;1.65;;;;;;;;;;5033287;28;20032;-60
2022/04/03 11:38:20;;;;;;;3.20;1.60;;;;;;;;;;5033219;28;20021;-60
2022/04/03 11:40:47;;;;;;;3.25;1.77;;;;;;;;;;5032753;28;20065;-59
2022/04/03 11:43:18;;;;;;;3.75;2.00;;;;;;;;;;5033048;28;20026;-60
2022/04/03 11:46:00;;;;;;;11.07;3.30;;;;;;;;;;5033105;28;20467;-59
2022/04/03 11:48:33;;;;;;;10.23;3.45;;;;;;;;;;5033113;28;20108;-61
2022/04/03 11:51:07;;;;;;;5.47;2.58;;;;;;;;;;5032536;28;20021;-61
2022/04/03 11:53:33;;;;;;;3.15;2.15;;;;;;;;;;5032604;28;20037;-61
2022/04/03 11:56:16;;;;;;;8.95;2.72;;;;;;;;;;5048387;28;20123;-63
2022/04/03 11:58:48;;;;;;;5.65;2.90;;;;;;;;;;5031168;28;20048;-63
2022/04/03 12:01:25;;;;;;;5.10;1.83;;;;;;;;;;5032424;28;20033;-70
2022/04/03 12:04:08;;;;;;;4.28;1.80;;;;;;;;;;5032700;28;20035;-64
2022/04/03 12:06:35;;;;;;;3.90;2.05;;;;;;;;;;5032446;28;20047;-63
2022/04/03 12:09:08;;;;;;;4.78;2.60;;;;;;;;;;5028602;28;20083;-62
2022/04/03 12:11:34;;;;;;;4.32;2.67;;;;;;;;;;5032453;28;20038;-65
2022/04/03 12:14:02;;;;;;;5.05;2.10;;;;;;;;;;5032809;28;20036;-62
2022/04/03 12:16:30;;;;;;;6.28;2.80;;;;;;;;;;5032709;28;20025;-63
2022/04/03 12:19:10;;;;;;;7.95;3.05;;;;;;;;;;5032343;28;20041;-63
2022/04/03 12:21:37;;;;;;;11.82;5.22;;;;;;;;;;5032574;28;20040;-62
2022/04/03 12:24:21;;;;;;;8.52;3.75;;;;;;;;;;5031934;28;20068;-63
2022/04/03 12:27:12;;;;;;;7.85;2.65;;;;;;;;;;5032682;28;20040;-67
2022/04/03 12:29:39;;;;;;;3.85;2.00;;;;;;;;;;5020453;28;20084;-62
2022/04/03 12:32:15;;;;;;;4.72;2.00;;;;;;;;;;5022868;28;20502;-62
2022/04/03 12:34:46;;;;;;;5.95;1.92;;;;;;;;;;5020378;28;20045;-60
2022/04/03 12:37:14;;;;;;;4.05;1.92;;;;;;;;;;5029258;28;20446;-62
2022/04/03 12:39:52;;;;;;;4.82;2.08;;;;;;;;;;5031053;28;20581;-61
2022/04/03 12:42:29;;;;;;;6.65;2.40;;;;;;;;;;5032425;28;20092;-64
2022/04/03 12:45:05;;;;;;;3.90;1.70;;;;;;;;;;5032478;28;20033;-63
2022/04/03 12:47:58;;;;;;;5.18;2.08;;;;;;;;;;5032417;28;20033;-63
2022/04/03 12:50:25;;;;;;;7.05;2.50;;;;;;;;;;5026565;28;20046;-60
2022/04/03 12:52:54;;;;;;;4.15;2.72;;;;;;;;;;5028043;28;20014;-63
2022/04/03 12:55:22;;;;;;;6.03;2.83;;;;;;;;;;5030965;28;20374;-60
2022/04/03 13:00:44;;;;;;;5.78;2.20;;;;;;;;;;5029031;28;20109;-61
2022/04/03 13:03:11;;;;;;;14.98;4.25;;;;;;;;;;5030751;28;20095;-61
2022/04/03 13:05:38;;;;;;;4.50;2.60;;;;;;;;;;5030806;28;20025;-62
2022/04/03 13:08:11;;;;;;;12.55;4.88;;;;;;;;;;5032110;28;20021;-59
2022/04/03 13:10:58;;;;;;;6.65;2.78;;;;;;;;;;5033125;28;20037;-62
2022/04/03 13:13:28;;;;;;;10.55;3.75;;;;;;;;;;5032596;28;20108;-61
2022/04/03 13:15:54;;;;;;;;;;;;;;;;;;5034424;28;20132;-62
2022/04/03 13:18:21;;;;;;;23.55;8.98;;;;;;;;;;5029517;28;19960;-58
2022/04/03 13:20:51;;;;;;;13.07;3.90;;;;;;;;;;5033557;28;20485;-59
2022/04/03 13:23:18;;;;;;;8.48;5.40;;;;;;;;;;5031721;28;20044;-59
2022/04/03 13:25:44;;;;;;;10.68;6.25;;;;;;;;;;5041420;28;20025;-59
2022/04/03 13:28:10;;;;;;;6.38;3.83;;;;;;;;;;5038247;28;20025;-60
2022/04/03 13:30:36;;;;;;;4.90;2.40;;;;;;;;;;5047990;28;20029;-60
2022/04/03 13:33:02;;;;;;;4.00;1.90;;;;;;;;;;5032244;28;20021;-60
2022/04/03 13:35:27;;;;;;;3.45;1.90;;;;;;;;;;5034944;28;20037;-59
2022/04/03 13:37:53;;;;;;;3.92;1.80;;;;;;;;;;5035530;28;20026;-59
2022/04/03 13:40:19;;;;;;;4.75;3.15;;;;;;;;;;5035516;28;20029;-59
2022/04/03 13:42:45;;;;;;;3.20;2.20;;;;;;;;;;5034107;28;20060;-60
2022/04/03 13:45:10;;;;;;;4.28;2.50;;;;;;;;;;5034969;28;20087;-60
2022/04/03 13:47:36;;;;;;;6.75;3.00;;;;;;;;;;5032227;28;20023;-60
2022/04/03 13:50:03;;;;;;;10.88;2.63;;;;;;;;;;5035112;28;20021;-62
2022/04/03 13:52:28;;;;;;;5.25;2.42;;;;;;;;;;5034621;28;20091;-60
2022/04/03 13:54:54;;;;;;;7.28;2.53;;;;;;;;;;5034758;28;20073;-59
2022/04/03 13:57:20;;;;;;;6.05;1.98;;;;;;;;;;5034773;28;20490;-59
2022/04/03 13:59:46;;;;;;;3.95;1.85;;;;;;;;;;5034720;28;20034;-61
2022/04/03 14:02:14;;;;;;;8.15;2.45;;;;;;;;;;5034905;28;20452;-60
2022/04/03 14:04:39;;;;;;;6.13;2.60;;;;;;;;;;5034835;28;20103;-61
2022/04/03 14:07:05;;;;;;;8.95;2.80;;;;;;;;;;5040418;28;20482;-59
2022/04/03 14:09:30;;;;;;;8.95;2.42;;;;;;;;;;5043180;28;20514;-59
2022/04/03 14:11:56;;;;;;;7.70;3.22;;;;;;;;;;5026796;28;20118;-60
2022/04/03 14:14:21;;;;;;;4.65;1.50;;;;;;;;;;5054909;28;20025;-61
2022/04/03 14:16:47;;;;;;;11.10;4.38;;;;;;;;;;5054762;28;20036;-59
2022/04/03 14:19:12;;;;;;;14.15;5.03;;;;;;;;;;5045652;28;20394;-59
2022/04/03 14:21:39;;;;;;;3.28;1.90;;;;;;;;;;5034388;28;20029;-60
2022/04/03 14:24:06;;;;;;;5.88;2.28;;;;;;;;;;5034845;28;20033;-59
2022/04/03 14:26:32;;;;;;;6.05;3.35;;;;;;;;;;5034669;28;20437;-60
2022/04/03 14:28:57;;;;;;;4.15;2.25;;;;;;;;;;5035358;28;20116;-59
2022/04/03 14:31:23;;;;;;;3.85;1.42;;;;;;;;;;5032947;28;20061;-60
2022/04/03 14:33:48;;;;;;;6.03;1.85;;;;;;;;;;5036703;28;20029;-59
2022/04/03 14:36:16;;;;;;;4.05;1.73;;;;;;;;;;5035089;28;20068;-60
2022/04/03 14:38:41;;;;;;;5.35;2.22;;;;;;;;;;5034032;28;20052;-59
2022/04/03 14:41:07;;;;;;;3.60;2.30;;;;;;;;;;5034804;28;20418;-59
2022/04/03 14:43:33;;;;;;;3.42;1.40;;;;;;;;;;5035302;28;20041;-59
2022/04/03 14:45:58;;;;;;;5.00;1.50;;;;;;;;;;5023369;28;20014;-59
2022/04/03 14:48:24;;;;;;;2.55;1.50;;;;;;;;;;5024819;28;20080;-61